Time;durP1;ratioP1;P1;durP2;ratioP2;P2;SDS_P1;SDS_P2;PMS_P1;PMS_P2;Temp;Humidity;BMP_temperature;BMP_pressure;BME280_temperature;BME280_humidity;BME280_pressure;Samples;Min_cycle;Max_cycle;Signal;HPM_P1;HPM_P2
2024/03/28 00:02:53;;;;;;;185.93;12.98;;;1.70;99.90;;;;;;20412437;29;20090;-43
2024/03/28 00:12:55;;;;;;;1.35;0.80;;;1.40;99.90;;;;;;20487156;29;20028;-43
2024/03/28 00:22:57;;;;;;;2.88;1.80;;;1.20;99.90;;;;;;20455197;28;20047;-43
2024/03/28 00:32:59;;;;;;;12.57;2.35;;;1.40;99.90;;;;;;20505488;29;20047;-44
2024/03/28 00:43:00;;;;;;;1.40;0.40;;;1.20;99.90;;;;;;20504612;29;20054;-43
2024/03/28 00:53:03;;;;;;;0.30;0.10;;;1.20;99.90;;;;;;20469458;29;20352;-42
2024/03/28 01:03:05;;;;;;;0.35;0.10;;;1.10;99.90;;;;;;20426924;29;20044;-40
2024/03/28 01:13:07;;;;;;;3.33;0.73;;;1.10;99.90;;;;;;20485685;29;20039;-43
2024/03/28 01:23:09;;;;;;;5.00;0.93;;;1.30;99.90;;;;;;20452756;28;20051;-43
2024/03/28 01:33:10;;;;;;;9.40;1.83;;;1.50;99.90;;;;;;20501601;29;20043;-42
2024/03/28 01:43:12;;;;;;;6.03;1.27;;;1.60;99.90;;;;;;20499465;28;20510;-42
2024/03/28 01:53:15;;;;;;;6.40;1.40;;;1.60;99.90;;;;;;20449959;29;20039;-45
2024/03/28 02:03:17;;;;;;;7.55;1.17;;;1.60;99.90;;;;;;20500234;29;20039;-41
2024/03/28 02:13:19;;;;;;;4.13;0.90;;;1.80;99.90;;;;;;20499046;29;20106;-40
2024/03/28 02:23:20;;;;;;;4.70;1.20;;;1.80;99.90;;;;;;20499262;29;20047;-41
2024/03/28 02:33:23;;;;;;;5.72;1.00;;;1.90;99.90;;;;;;20474354;29;20032;-42
2024/03/28 02:43:25;;;;;;;3.13;0.73;;;1.90;99.90;;;;;;20490494;29;20032;-40
2024/03/28 02:53:30;;;;;;;2.67;0.82;;;1.90;99.90;;;;;;20508731;28;20362;-43
2024/03/28 03:03:32;;;;;;;7.68;0.50;;;2.00;99.90;;;;;;20511951;29;20035;-40
2024/03/28 03:13:34;;;;;;;4.25;0.93;;;2.10;99.90;;;;;;20483808;29;20042;-42
2024/03/28 03:23:37;;;;;;;2.78;0.70;;;2.00;99.90;;;;;;20463624;29;20039;-40
2024/03/28 03:43:59;;;;;;;1.13;0.27;;;2.20;99.90;;;;;;20446455;29;20098;-41
2024/03/28 03:54:01;;;;;;;2.97;0.50;;;2.40;99.90;;;;;;20451958;29;20040;-40
2024/03/28 04:04:04;;;;;;;4.72;0.38;;;2.50;99.90;;;;;;20427934;29;20036;-40
2024/03/28 04:14:06;;;;;;;2.50;0.50;;;2.30;99.90;;;;;;20504607;29;20031;-40
2024/03/28 04:24:08;;;;;;;2.22;0.30;;;2.00;99.90;;;;;;20505554;28;20055;-39
2024/03/28 04:34:13;;;;;;;0.80;0.22;;;2.30;99.90;;;;;;20505546;29;20035;-39
2024/03/28 04:44:15;;;;;;;2.13;0.30;;;2.10;99.90;;;;;;20476417;29;20035;-40
2024/03/28 04:54:19;;;;;;;1.20;0.30;;;2.10;99.90;;;;;;20464504;29;20035;-40
2024/03/28 05:04:21;;;;;;;1.10;0.20;;;2.10;99.90;;;;;;20485587;29;20043;-40
2024/03/28 05:14:24;;;;;;;3.35;0.35;;;2.30;99.90;;;;;;20484110;28;20055;-40
2024/03/28 05:24:26;;;;;;;3.22;0.40;;;2.40;99.90;;;;;;20500917;29;20058;-40
2024/03/28 05:34:28;;;;;;;0.73;0.20;;;2.80;99.90;;;;;;20447740;29;20039;-40
2024/03/28 05:44:29;;;;;;;2.78;0.10;;;2.90;99.90;;;;;;20424508;29;20694;-40
2024/03/28 05:54:31;;;;;;;2.30;0.30;;;2.90;99.90;;;;;;20426526;29;20040;-40
2024/03/28 06:04:33;;;;;;;0.70;0.17;;;3.20;99.90;;;;;;20416677;29;20372;-40
2024/03/28 06:14:38;;;;;;;1.85;0.10;;;3.50;99.90;;;;;;20420336;29;20059;-39
2024/03/28 06:24:39;;;;;;;1.00;0.22;;;3.40;99.90;;;;;;20449469;28;20051;-40
2024/03/28 06:34:41;;;;;;;0.20;0.10;;;2.90;99.90;;;;;;20510798;29;20039;-40
2024/03/28 06:44:48;;;;;;;0.25;0.10;;;2.70;99.90;;;;;;20417312;29;20090;-39
2024/03/28 06:54:51;;;;;;;1.45;0.20;;;3.20;99.90;;;;;;20482563;29;20042;-40
2024/03/28 07:04:53;;;;;;;1.52;0.30;;;3.10;99.90;;;;;;20511895;29;20043;-40
2024/03/28 07:14:54;;;;;;;3.22;0.20;;;3.00;99.90;;;;;;20494557;29;20050;-40
2024/03/28 07:24:56;;;;;;;0.52;0.20;;;2.80;99.90;;;;;;20501086;29;20157;-40
2024/03/28 07:34:58;;;;;;;1.00;0.32;;;2.40;99.90;;;;;;20428518;29;20055;-45
2024/03/28 07:45:00;;;;;;;0.50;0.20;;;2.00;99.90;;;;;;20425854;29;20094;-42
2024/03/28 07:55:03;;;;;;;0.08;0.00;;;1.70;99.90;;;;;;20416428;29;20091;-42
2024/03/28 08:05:05;;;;;;;0.38;0.08;;;1.70;99.90;;;;;;20433718;29;20027;-41
2024/03/28 08:15:07;;;;;;;0.10;0.00;;;2.10;99.90;;;;;;20504043;29;20038;-42
2024/03/28 08:25:10;;;;;;;1.00;0.00;;;2.20;99.90;;;;;;20499794;29;20557;-40
2024/03/28 08:35:13;;;;;;;0.00;0.00;;;2.30;99.90;;;;;;20505381;29;20435;-40
2024/03/28 08:45:15;;;;;;;0.00;0.00;;;2.50;99.90;;;;;;20487560;28;20067;-40
2024/03/28 08:55:19;;;;;;;0.00;0.00;;;2.20;99.90;;;;;;20499767;29;20035;-40
2024/03/28 09:05:21;;;;;;;0.20;0.00;;;2.30;99.90;;;;;;20501403;29;20046;-40
2024/03/28 09:15:23;;;;;;;0.17;0.05;;;2.20;99.90;;;;;;20255976;29;20045;-46
2024/03/28 09:25:25;;;;;;;0.00;0.00;;;1.90;99.90;;;;;;20255101;29;20059;-44
2024/03/28 09:35:27;;;;;;;0.30;0.00;;;1.90;99.90;;;;;;20223020;29;20082;-45
2024/03/28 09:45:29;;;;;;;0.00;0.00;;;2.20;99.90;;;;;;20378229;29;20506;-45
2024/03/28 09:55:32;;;;;;;0.10;0.10;;;2.20;99.90;;;;;;20402579;28;20523;-44
2024/03/28 10:05:34;;;;;;;0.98;0.00;;;2.30;99.90;;;;;;20414233;29;20031;-40
2024/03/28 10:15:36;;;;;;;1.00;0.00;;;2.20;99.90;;;;;;20407818;29;20032;-40
2024/03/28 10:25:38;;;;;;;0.10;0.00;;;2.50;99.90;;;;;;20458753;29;20205;-44
2024/03/28 10:35:46;;;;;;;0.00;0.00;;;2.80;99.90;;;;;;20483884;29;20094;-45
2024/03/28 10:45:50;;;;;;;0.13;0.00;;;3.00;99.90;;;;;;20421094;29;20039;-40
2024/03/28 10:56:12;;;;;;;0.00;0.00;;;3.10;99.90;;;;;;20466019;29;20035;-40
2024/03/28 11:06:14;;;;;;;1.73;0.10;;;3.40;99.90;;;;;;20435363;29;20050;-42
2024/03/28 11:16:22;;;;;;;0.00;0.00;;;3.60;99.90;;;;;;20503573;28;20138;-41
2024/03/28 11:26:26;;;;;;;0.00;0.00;;;3.60;99.90;;;;;;20455349;29;20107;-40
2024/03/28 11:36:29;;;;;;;0.25;0.00;;;3.70;99.90;;;;;;20473140;29;20655;-44
2024/03/28 11:46:31;;;;;;;0.00;0.00;;;3.70;99.90;;;;;;20456572;29;20063;-43
2024/03/28 11:56:34;;;;;;;0.00;0.00;;;3.80;99.90;;;;;;20507126;29;20031;-45
2024/03/28 12:06:36;;;;;;;0.00;0.00;;;3.70;99.90;;;;;;20436814;29;20036;-43
2024/03/28 12:16:45;;;;;;;0.00;0.00;;;3.80;99.90;;;;;;20417506;29;20032;-44
2024/03/28 12:26:47;;;;;;;0.70;0.00;;;3.90;99.90;;;;;;20396335;29;20052;-48
2024/03/28 12:36:52;;;;;;;28.02;0.40;;;3.70;99.90;;;;;;20443353;29;20398;-46
2024/03/28 12:46:54;;;;;;;20.65;0.45;;;3.70;99.90;;;;;;20504205;29;20027;-42
2024/03/28 12:56:56;;;;;;;4.85;0.05;;;3.80;99.90;;;;;;20505284;29;20176;-44
2024/03/28 13:06:58;;;;;;;69.90;1.90;;;4.00;99.90;;;;;;20449586;29;20043;-44
2024/03/28 13:16:59;;;;;;;519.17;13.05;;;4.20;99.90;;;;;;20445490;29;20036;-41
2024/03/28 13:27:02;;;;;;;768.10;23.17;;;4.60;99.90;;;;;;20271280;29;20076;-43
2024/03/28 13:37:08;;;;;;;719.53;22.60;;;4.80;99.90;;;;;;20308459;29;20059;-44
2024/03/28 13:47:12;;;;;;;413.17;15.18;;;4.90;99.90;;;;;;20310940;29;20048;-44
2024/03/28 13:57:13;;;;;;;337.13;11.07;;;5.20;99.90;;;;;;20386794;29;20566;-44
2024/03/28 14:07:15;;;;;;;501.83;15.45;;;5.30;99.90;;;;;;20462770;29;20031;-40
2024/03/28 14:17:16;;;;;;;559.80;19.85;;;5.20;99.90;;;;;;20450253;29;20036;-39
2024/03/28 14:27:18;;;;;;;501.50;15.82;;;5.30;99.90;;;;;;20435179;28;20039;-44
2024/03/28 14:37:27;;;;;;;285.13;7.43;;;5.20;99.90;;;;;;20453932;29;20035;-44
2024/03/28 14:47:29;;;;;;;389.83;10.27;;;5.10;99.90;;;;;;20504567;28;20051;-43
2024/03/28 14:57:31;;;;;;;359.60;10.52;;;4.90;99.90;;;;;;20495551;29;20035;-45
2024/03/28 15:07:32;;;;;;;250.60;7.07;;;4.80;99.90;;;;;;20511464;29;20035;-42
2024/03/28 15:17:34;;;;;;;62.70;1.48;;;4.80;99.90;;;;;;20511465;29;20108;-41
2024/03/28 15:27:36;;;;;;;6.90;0.10;;;4.80;99.90;;;;;;20474581;28;20459;-43
2024/03/28 15:37:38;;;;;;;0.00;0.00;;;4.70;99.90;;;;;;20433197;29;20068;-41
2024/03/28 15:47:43;;;;;;;0.08;0.00;;;4.50;99.90;;;;;;20420887;29;20102;-46
2024/03/28 15:57:45;;;;;;;0.20;0.00;;;4.70;99.90;;;;;;20480351;28;20023;-43
2024/03/28 16:07:47;;;;;;;1.35;0.00;;;4.70;99.90;;;;;;20376217;29;20423;-40
2024/03/28 16:17:49;;;;;;;0.20;0.10;;;4.70;99.90;;;;;;20418050;29;20039;-40
2024/03/28 16:27:52;;;;;;;96.18;3.45;;;4.70;99.90;;;;;;20380057;29;20051;-42
2024/03/28 16:37:54;;;;;;;0.20;0.10;;;4.70;99.90;;;;;;20398229;29;20521;-41
2024/03/28 16:47:56;;;;;;;0.10;0.00;;;4.70;99.90;;;;;;20486279;29;20040;-40
2024/03/28 16:57:58;;;;;;;0.75;0.20;;;4.50;99.90;;;;;;20495007;29;20042;-39
2024/03/28 17:08:04;;;;;;;0.57;0.10;;;4.40;99.90;;;;;;20485443;28;20039;-45
2024/03/28 17:18:09;;;;;;;0.93;0.17;;;4.40;99.90;;;;;;20503362;29;20031;-44
2024/03/28 17:28:10;;;;;;;1.33;0.40;;;4.30;99.90;;;;;;20450991;29;20059;-40
2024/03/28 17:38:12;;;;;;;4.57;1.83;;;4.50;99.90;;;;;;20450982;29;20134;-40
2024/03/28 17:48:14;;;;;;;6.78;2.38;;;4.60;99.90;;;;;;20438594;29;20035;-41
2024/03/28 17:58:16;;;;;;;3.33;1.27;;;4.50;99.90;;;;;;20491588;29;20031;-48
2024/03/28 18:08:17;;;;;;;6.45;2.40;;;4.60;99.90;;;;;;20456014;29;20566;-39
2024/03/28 18:18:19;;;;;;;7.10;2.47;;;4.70;99.90;;;;;;20469160;28;20043;-43
2024/03/28 18:28:22;;;;;;;12.35;4.20;;;4.70;99.90;;;;;;20514637;29;20048;-41
2024/03/28 18:38:23;;;;;;;24.60;7.30;;;4.40;99.90;;;;;;20482368;29;20110;-41
2024/03/28 18:48:25;;;;;;;14.88;5.80;;;4.50;99.90;;;;;;20513674;29;20090;-40
2024/03/28 18:58:28;;;;;;;12.07;5.10;;;4.70;99.90;;;;;;20512479;29;20043;-41
2024/03/28 19:08:30;;;;;;;11.93;4.18;;;4.80;99.90;;;;;;20475667;29;20038;-40
2024/03/28 19:18:31;;;;;;;13.77;3.58;;;4.80;99.90;;;;;;20510891;29;20051;-44
2024/03/28 19:28:33;;;;;;;11.68;3.33;;;5.00;99.90;;;;;;20509321;28;20127;-40
2024/03/28 19:38:35;;;;;;;7.75;1.83;;;5.00;99.90;;;;;;20466611;29;20032;-40
2024/03/28 19:48:37;;;;;;;4.60;1.30;;;5.10;99.90;;;;;;20428752;29;20046;-40
2024/03/28 19:58:39;;;;;;;5.05;1.20;;;5.30;99.90;;;;;;20422560;29;20032;-40
2024/03/28 20:08:41;;;;;;;3.67;1.50;;;5.40;99.90;;;;;;20462776;29;20039;-40
2024/03/28 20:18:42;;;;;;;5.70;1.42;;;5.50;99.90;;;;;;20439230;29;20095;-40
2024/03/28 20:28:45;;;;;;;5.28;1.48;;;5.40;99.90;;;;;;20362661;29;20044;-41
2024/03/28 20:38:46;;;;;;;4.13;1.30;;;5.50;99.90;;;;;;20362097;29;20036;-40
2024/03/28 20:48:48;;;;;;;6.18;1.02;;;5.50;99.90;;;;;;20349604;29;20035;-40
2024/03/28 20:58:50;;;;;;;6.00;0.90;;;5.70;99.90;;;;;;20420127;29;20028;-39
2024/03/28 21:19:12;;;;;;;4.68;0.75;;;5.60;99.90;;;;;;20423372;29;20036;-40
2024/03/28 21:29:14;;;;;;;4.68;0.85;;;5.50;99.90;;;;;;20493342;29;20047;-39
2024/03/28 21:39:16;;;;;;;7.85;0.85;;;5.50;99.90;;;;;;20500461;29;20122;-39
2024/03/28 21:49:17;;;;;;;3.05;0.65;;;5.20;99.90;;;;;;20470311;29;20070;-39
2024/03/28 21:59:19;;;;;;;3.17;0.85;;;5.30;99.90;;;;;;20499135;28;20045;-39
2024/03/28 22:09:21;;;;;;;3.22;0.75;;;5.60;99.90;;;;;;20499373;29;20096;-40
2024/03/28 22:19:25;;;;;;;5.63;0.70;;;5.50;99.90;;;;;;20499442;29;20039;-40
2024/03/28 22:29:27;;;;;;;1.27;0.38;;;5.60;99.90;;;;;;20418153;29;20567;-39
2024/03/28 22:39:28;;;;;;;2.97;0.50;;;5.60;99.90;;;;;;20419148;29;20484;-39
2024/03/28 22:49:30;;;;;;;3.67;0.55;;;6.10;99.90;;;;;;20389058;29;20095;-39
2024/03/28 22:59:32;;;;;;;3.20;0.50;;;5.90;99.90;;;;;;20417259;29;20099;-40
2024/03/28 23:09:33;;;;;;;1.15;0.30;;;5.50;99.90;;;;;;20427442;29;20047;-39
2024/03/28 23:19:35;;;;;;;1.77;0.32;;;5.90;99.90;;;;;;20431755;29;20027;-39
2024/03/28 23:29:37;;;;;;;0.35;0.10;;;6.30;99.90;;;;;;20505677;29;20058;-39
2024/03/28 23:39:45;;;;;;;1.35;0.30;;;6.80;99.90;;;;;;20511038;29;20505;-40
2024/03/28 23:49:47;;;;;;;1.05;0.13;;;7.10;99.90;;;;;;20508889;29;20028;-40
2024/03/28 23:59:51;;;;;;;0.50;0.15;;;6.60;99.90;;;;;;20508518;29;20035;-42
